STL weather

St Louis Lambert International Airport
St Louis, Missouri, United States

Public forecast

Using degrees Fahrenheit for public forecast. Weather courtesy of forecast.io.

METAR (pilot weather report)

Retrieved 2018/10/17 02:51 UTC (43 minutes ago):

KSTL 170251Z 27004KT 10SM FEW250 10/02 A3023 RMK AO2 SLP239 T01000017 51009

TAF (pilot weather forecast)

Forecast is more than 12 hours old.

Retrieved 2018/10/16 00:22 UTC (1 day ago):

TAF KSTL 162320Z 1700/1806 25007KT P6SM FEW250 FM171200 33008KT P6SM SKC